createdAt,value
2016-06-17T00:00:50.979Z,23.67
2016-06-17T00:01:51.155Z,23.72
2016-06-17T00:02:51.017Z,23.67
2016-06-17T00:03:51.020Z,23.6
2016-06-17T00:04:51.196Z,23.62
2016-06-17T00:05:51.200Z,23.57
2016-06-17T00:06:51.218Z,23.63
2016-06-17T00:07:51.221Z,23.6
2016-06-17T00:08:51.241Z,23.62
2016-06-17T00:09:51.088Z,23.56
2016-06-17T00:10:51.107Z,23.66
2016-06-17T00:11:51.110Z,23.55
2016-06-17T00:12:50.989Z,23.56
2016-06-17T00:13:51.321Z,23.62
2016-06-17T00:14:51.308Z,23.62
2016-06-17T00:15:51.140Z,23.57
2016-06-17T00:16:51.332Z,23.66
2016-06-17T00:17:51.319Z,23.56
2016-06-17T00:18:51.369Z,23.59
2016-06-17T00:19:51.217Z,23.62
2016-06-17T00:20:51.391Z,23.55
2016-06-17T00:21:51.208Z,23.57
2016-06-17T00:22:51.398Z,23.57
2016-06-17T00:23:51.246Z,23.55
2016-06-17T00:24:51.421Z,23.57
2016-06-17T00:25:51.269Z,23.56
2016-06-17T00:26:51.444Z,23.56
2016-06-17T00:27:51.291Z,23.57
2016-06-17T00:28:51.466Z,23.56
2016-06-17T00:29:51.313Z,23.55
2016-06-17T00:30:51.630Z,23.55
2016-06-17T00:31:51.523Z,23.57
2016-06-17T00:32:51.512Z,23.57
2016-06-17T00:33:51.530Z,23.56
2016-06-17T00:34:51.550Z,23.52
2016-06-17T00:35:51.553Z,23.56
2016-06-17T00:36:51.541Z,23.55
2016-06-17T00:37:51.419Z,23.55
2016-06-17T00:38:51.564Z,23.56
2016-06-17T00:39:51.426Z,23.55
2016-06-17T00:40:51.414Z,23.57
2016-06-17T00:41:51.636Z,23.55
2016-06-17T00:42:51.609Z,23.59
2016-06-17T00:43:51.628Z,23.59
2016-06-17T00:44:51.646Z,23.56
2016-06-17T00:45:51.649Z,23.56
2016-06-17T00:46:51.653Z,23.52
2016-06-17T00:47:51.517Z,23.56
2016-06-17T00:48:51.660Z,23.56
2016-06-17T00:49:51.538Z,23.55
2016-06-17T00:50:51.713Z,23.59
2016-06-17T00:51:51.716Z,23.53
2016-06-17T00:52:51.563Z,23.55
2016-06-17T00:53:51.738Z,23.56
2016-06-17T00:54:51.569Z,23.55
2016-06-17T00:55:51.634Z,23.62
2016-06-17T00:56:51.762Z,23.56
2016-06-17T00:57:51.782Z,23.53
2016-06-17T00:58:51.801Z,23.62
2016-06-17T00:59:51.664Z,23.57
2016-06-17T01:00:51.823Z,23.53
2016-06-17T01:01:51.826Z,23.56
2016-06-17T01:02:51.830Z,23.5
2016-06-17T01:03:51.849Z,23.6
2016-06-17T01:04:51.868Z,23.52
2016-06-17T01:05:51.856Z,23.47
2016-06-17T01:06:51.719Z,23.48
2016-06-17T01:07:51.894Z,23.55
2016-06-17T01:08:51.742Z,23.47
2016-06-17T01:09:51.901Z,23.52
2016-06-17T01:10:51.764Z,23.52
2016-06-17T01:11:51.939Z,23.48
2016-06-17T01:12:51.927Z,23.53
2016-06-17T01:13:51.977Z,23.45
2016-06-17T01:14:51.824Z,23.5
2016-06-17T01:15:51.828Z,23.5
2016-06-17T01:16:51.988Z,23.5
2016-06-17T01:17:51.850Z,23.53
2016-06-17T01:18:52.010Z,23.53
2016-06-17T01:19:52.013Z,23.52
2016-06-17T01:20:52.033Z,23.48
2016-06-17T01:21:52.053Z,23.48
2016-06-17T01:22:52.070Z,23.48
2016-06-17T01:23:51.903Z,23.52
2016-06-17T01:24:52.093Z,23.48
2016-06-17T01:25:52.081Z,23.47
2016-06-17T01:26:51.945Z,23.48
2016-06-17T01:27:51.791Z,23.45
2016-06-17T01:28:52.122Z,23.5
2016-06-17T01:29:52.126Z,23.47
2016-06-17T01:30:52.129Z,23.47
2016-06-17T01:31:52.133Z,23.56
2016-06-17T01:32:52.169Z,23.55
2016-06-17T01:33:52.155Z,23.48
2016-06-17T01:34:52.175Z,23.48
2016-06-17T01:35:52.194Z,23.56
2016-06-17T01:36:52.214Z,23.53
2016-06-17T01:37:52.201Z,23.5
2016-06-17T01:38:52.237Z,23.52
2016-06-17T01:39:51.926Z,23.5
2016-06-17T01:40:52.446Z,23.55
2016-06-17T01:41:52.262Z,23.42
2016-06-17T01:42:52.125Z,23.52
2016-06-17T01:43:52.269Z,23.45
2016-06-17T01:44:52.303Z,23.5
2016-06-17T01:45:52.275Z,23.48
2016-06-17T01:46:52.014Z,23.53
2016-06-17T01:47:52.314Z,23.53
2016-06-17T01:48:52.363Z,23.41
2016-06-17T01:49:52.211Z,23.53
2016-06-17T01:50:52.199Z,23.53
2016-06-17T01:51:52.359Z,23.5
2016-06-17T01:52:52.238Z,23.55
2016-06-17T01:53:52.241Z,23.48
2016-06-17T01:54:52.400Z,23.52
2016-06-17T01:55:52.420Z,23.55
2016-06-17T01:56:52.426Z,23.55
2016-06-17T01:57:52.431Z,23.52
2016-06-17T01:58:52.450Z,23.44
2016-06-17T01:59:52.455Z,23.59
2016-06-17T02:00:52.476Z,23.41
2016-06-17T02:01:52.339Z,23.38
2016-06-17T02:02:52.515Z,23.47
2016-06-17T02:03:52.503Z,23.38
2016-06-17T02:04:52.538Z,23.52
2016-06-17T02:05:52.557Z,23.48
2016-06-17T02:06:52.561Z,23.56
2016-06-17T02:07:52.581Z,23.41
2016-06-17T02:08:52.585Z,23.41
2016-06-17T02:09:52.604Z,23.41
2016-06-17T02:10:52.608Z,23.4
2016-06-17T02:11:52.612Z,23.41
2016-06-17T02:12:52.287Z,23.52
2016-06-17T02:13:52.477Z,23.41
2016-06-17T02:14:52.497Z,23.53
2016-06-17T02:15:52.640Z,23.38
2016-06-17T02:16:52.504Z,23.42
2016-06-17T02:17:52.679Z,23.44
2016-06-17T02:18:52.511Z,23.44
2016-06-17T02:19:52.529Z,23.53
2016-06-17T02:20:52.689Z,23.53
2016-06-17T02:21:52.693Z,23.45
2016-06-17T02:22:52.711Z,23.41
2016-06-17T02:23:52.762Z,23.41
2016-06-17T02:24:52.735Z,23.41
2016-06-17T02:25:52.769Z,23.48
2016-06-17T02:26:52.773Z,23.38
2016-06-17T02:27:52.793Z,23.44
2016-06-17T02:28:52.779Z,23.44
2016-06-17T02:29:52.814Z,23.38
2016-06-17T02:30:52.646Z,23.4
2016-06-17T02:31:52.821Z,23.48
2016-06-17T02:32:52.685Z,23.41
2016-06-17T02:33:52.843Z,23.45
2016-06-17T02:34:52.847Z,23.4
2016-06-17T02:35:52.866Z,23.41
2016-06-17T02:36:52.870Z,23.4
2016-06-17T02:37:52.888Z,23.44
2016-06-17T02:38:52.892Z,23.42
2016-06-17T02:39:52.912Z,23.4
2016-06-17T02:40:52.930Z,23.44
2016-06-17T02:41:52.919Z,23.42
2016-06-17T02:42:52.937Z,23.41
2016-06-17T02:43:52.628Z,23.44
2016-06-17T02:44:52.991Z,23.41
2016-06-17T02:45:52.651Z,23.41
2016-06-17T02:46:52.998Z,23.42
2016-06-17T02:47:52.986Z,23.4
2016-06-17T02:48:52.708Z,23.4
2016-06-17T02:49:53.024Z,23.35
2016-06-17T02:50:53.028Z,23.41
2016-06-17T02:51:53.046Z,23.41
2016-06-17T02:52:52.893Z,23.41
2016-06-17T02:53:53.069Z,23.38
2016-06-17T02:54:53.089Z,23.37
2016-06-17T02:55:53.092Z,23.41
2016-06-17T02:56:53.110Z,23.4
2016-06-17T02:57:53.099Z,23.37
2016-06-17T02:58:53.102Z,23.35
2016-06-17T02:59:52.809Z,23.35
2016-06-17T03:00:53.140Z,23.28
2016-06-17T03:01:53.144Z,23.4
2016-06-17T03:02:53.178Z,23.38
2016-06-17T03:03:53.167Z,23.34
2016-06-17T03:04:52.873Z,23.34
2016-06-17T03:05:53.205Z,23.37
2016-06-17T03:06:53.036Z,23.28
2016-06-17T03:07:53.055Z,23.37
2016-06-17T03:08:52.918Z,23.34
2016-06-17T03:09:53.249Z,23.35
2016-06-17T03:10:53.253Z,23.41
2016-06-17T03:11:53.115Z,23.37
2016-06-17T03:12:53.276Z,23.4
2016-06-17T03:13:53.294Z,23.35
2016-06-17T03:14:53.314Z,23.38
2016-06-17T03:15:53.301Z,23.37
2016-06-17T03:16:53.321Z,23.35
2016-06-17T03:17:53.168Z,23.32
2016-06-17T03:18:53.358Z,23.29
2016-06-17T03:19:53.331Z,23.37
2016-06-17T03:20:53.365Z,23.45
2016-06-17T03:21:53.369Z,23.4
2016-06-17T03:22:53.404Z,23.32
2016-06-17T03:23:53.376Z,23.38
2016-06-17T03:24:53.410Z,23.38
2016-06-17T03:25:53.399Z,23.28
2016-06-17T03:26:53.277Z,23.44
2016-06-17T03:27:53.437Z,23.35
2016-06-17T03:28:53.456Z,23.35
2016-06-17T03:29:53.460Z,23.35
2016-06-17T03:30:53.166Z,23.42
2016-06-17T03:31:53.466Z,23.4
2016-06-17T03:32:53.345Z,23.35
2016-06-17T03:33:53.504Z,23.4
2016-06-17T03:34:53.523Z,23.38
2016-06-17T03:35:53.512Z,23.35
2016-06-17T03:36:53.389Z,23.38
2016-06-17T03:37:53.534Z,23.32
2016-06-17T03:38:53.553Z,23.41
2016-06-17T03:39:53.557Z,23.38
2016-06-17T03:40:53.575Z,23.38
2016-06-17T03:41:53.579Z,23.42
2016-06-17T03:42:53.597Z,23.44
2016-06-17T03:43:53.617Z,23.34
2016-06-17T03:44:53.652Z,23.38
2016-06-17T03:45:53.640Z,23.35
2016-06-17T03:46:53.644Z,23.37
2016-06-17T03:47:53.647Z,23.35
2016-06-17T03:48:53.526Z,23.28
2016-06-17T03:49:53.528Z,23.37
2016-06-17T03:50:53.532Z,23.4
2016-06-17T03:51:53.708Z,23.38
2016-06-17T03:52:53.726Z,23.35
2016-06-17T03:53:53.543Z,23.41
2016-06-17T03:54:53.733Z,23.34
2016-06-17T03:55:53.736Z,23.4
2016-06-17T03:56:53.600Z,23.38
2016-06-17T03:57:53.775Z,23.37
2016-06-17T03:58:53.622Z,23.35
2016-06-17T03:59:53.625Z,23.35
2016-06-17T04:00:53.801Z,23.42
2016-06-17T04:01:53.648Z,23.42
2016-06-17T04:02:53.808Z,23.42
2016-06-17T04:03:53.827Z,23.35
2016-06-17T04:04:53.830Z,23.37
2016-06-17T04:05:53.693Z,23.35
2016-06-17T04:06:53.853Z,23.32
2016-06-17T04:07:53.872Z,23.38
2016-06-17T04:08:53.781Z,23.41
2016-06-17T04:09:53.895Z,23.37
2016-06-17T04:10:53.757Z,23.28
2016-06-17T04:11:53.933Z,23.37
2016-06-17T04:12:53.939Z,23.38
2016-06-17T04:13:53.805Z,23.37
2016-06-17T04:14:53.812Z,23.4
2016-06-17T04:15:53.960Z,23.42
2016-06-17T04:16:53.825Z,23.4
2016-06-17T04:17:54.003Z,23.35
2016-06-17T04:18:54.007Z,23.35
2016-06-17T04:19:54.028Z,23.35
2016-06-17T04:20:54.032Z,23.35
2016-06-17T04:21:54.068Z,23.37
2016-06-17T04:22:54.042Z,23.38
2016-06-17T04:23:54.060Z,23.4
2016-06-17T04:24:53.924Z,23.4
2016-06-17T04:25:53.943Z,23.35
2016-06-17T04:26:54.087Z,23.37
2016-06-17T04:27:54.122Z,23.32
2016-06-17T04:28:54.111Z,23.35
2016-06-17T04:29:53.974Z,23.35
2016-06-17T04:30:54.150Z,23.4
2016-06-17T04:31:54.028Z,23.32
2016-06-17T04:32:54.158Z,23.37
2016-06-17T04:33:54.191Z,23.38
2016-06-17T04:34:54.211Z,23.34
2016-06-17T04:35:54.215Z,23.32
2016-06-17T04:36:54.203Z,23.4
2016-06-17T04:37:54.236Z,23.34
2016-06-17T04:38:54.225Z,23.35
2016-06-17T04:39:54.259Z,23.37
2016-06-17T04:40:53.950Z,23.35
2016-06-17T04:41:54.267Z,23.35
2016-06-17T04:42:54.269Z,23.35
2016-06-17T04:43:54.289Z,23.34
2016-06-17T04:44:54.307Z,23.35
2016-06-17T04:45:54.312Z,23.32
2016-06-17T04:46:54.331Z,23.32
2016-06-17T04:47:54.350Z,23.38
2016-06-17T04:48:54.352Z,23.35
2016-06-17T04:49:54.356Z,23.37
2016-06-17T04:50:54.359Z,23.38
2016-06-17T04:51:54.379Z,23.28
2016-06-17T04:52:54.399Z,23.35
2016-06-17T04:53:54.386Z,23.4
2016-06-17T04:54:54.248Z,23.38
2016-06-17T04:55:54.424Z,23.26
2016-06-17T04:56:54.444Z,23.35
2016-06-17T04:57:54.447Z,23.37
2016-06-17T04:58:54.467Z,23.35
2016-06-17T04:59:54.328Z,23.35
2016-06-17T05:00:54.316Z,23.4
2016-06-17T05:01:54.320Z,23.37
2016-06-17T05:02:54.355Z,23.38
2016-06-17T05:03:54.202Z,23.35
2016-06-17T05:04:54.533Z,23.35
2016-06-17T05:05:54.536Z,23.28
2016-06-17T05:06:54.525Z,23.35
2016-06-17T05:07:54.544Z,23.35
2016-06-17T05:08:54.563Z,23.38
2016-06-17T05:09:54.395Z,23.38
2016-06-17T05:10:54.600Z,23.35
2016-06-17T05:11:54.432Z,23.32
2016-06-17T05:12:54.624Z,23.35
2016-06-17T05:13:54.455Z,23.29
2016-06-17T05:14:54.475Z,23.32
2016-06-17T05:15:54.618Z,23.4
2016-06-17T05:16:54.653Z,23.37
2016-06-17T05:17:54.657Z,23.32
2016-06-17T05:18:54.675Z,23.37
2016-06-17T05:19:54.679Z,23.34
2016-06-17T05:20:54.683Z,23.32
2016-06-17T05:21:54.560Z,23.28
2016-06-17T05:22:54.720Z,23.32
2016-06-17T05:23:54.723Z,23.35
2016-06-17T05:24:54.743Z,23.28
2016-06-17T05:25:55.247Z,23.38
2016-06-17T05:26:54.609Z,23.38
2016-06-17T05:27:54.754Z,23.35
2016-06-17T05:28:54.788Z,23.32
2016-06-17T05:29:54.777Z,23.32
2016-06-17T05:30:54.670Z,23.32
2016-06-17T05:31:54.799Z,23.38
2016-06-17T05:32:54.849Z,23.26
2016-06-17T05:33:54.837Z,23.34
2016-06-17T05:34:54.841Z,23.32
2016-06-17T05:35:54.719Z,23.26
2016-06-17T05:36:54.863Z,23.26
2016-06-17T05:37:54.882Z,23.32
2016-06-17T05:38:54.886Z,23.28
2016-06-17T05:39:54.748Z,23.24
2016-06-17T05:40:54.907Z,23.38
2016-06-17T05:41:54.911Z,23.32
2016-06-17T05:42:54.930Z,23.32
2016-06-17T05:43:54.950Z,23.25
2016-06-17T05:44:54.953Z,23.26
2016-06-17T05:45:54.972Z,23.28
2016-06-17T05:46:54.991Z,23.34
2016-06-17T05:47:54.995Z,23.29
2016-06-17T05:48:54.998Z,23.29
2016-06-17T05:49:55.033Z,23.26
2016-06-17T05:50:55.021Z,23.28
2016-06-17T05:51:55.024Z,23.26
2016-06-17T05:52:55.028Z,23.35
2016-06-17T05:53:54.906Z,23.32
2016-06-17T05:54:54.910Z,23.25
2016-06-17T05:55:55.084Z,23.28
2016-06-17T05:56:55.073Z,23.28
2016-06-17T05:57:55.091Z,23.34
2016-06-17T05:58:54.938Z,23.25
2016-06-17T05:59:54.990Z,23.29
2016-06-17T06:00:55.133Z,23.35
2016-06-17T06:01:55.168Z,23.26
2016-06-17T06:02:55.156Z,23.25
2016-06-17T06:03:55.159Z,23.28
2016-06-17T06:04:55.006Z,23.28
2016-06-17T06:05:55.181Z,23.28
2016-06-17T06:06:55.044Z,23.29
2016-06-17T06:07:55.220Z,23.29
2016-06-17T06:08:55.224Z,23.22
2016-06-17T06:09:55.070Z,23.32
2016-06-17T06:10:55.246Z,23.25
2016-06-17T06:11:55.093Z,23.16
2016-06-17T06:12:55.268Z,23.26
2016-06-17T06:13:55.116Z,23.25
2016-06-17T06:14:55.275Z,23.26
2016-06-17T06:15:55.294Z,23.34
2016-06-17T06:16:55.298Z,23.18
2016-06-17T06:17:55.317Z,23.26
2016-06-17T06:18:55.321Z,23.25
2016-06-17T06:19:55.340Z,23.32
2016-06-17T06:20:55.342Z,23.24
2016-06-17T06:21:55.347Z,23.34
2016-06-17T06:22:55.365Z,23.29
2016-06-17T06:23:55.244Z,23.16
2016-06-17T06:24:55.404Z,23.26
2016-06-17T06:25:55.407Z,23.16
2016-06-17T06:26:55.255Z,23.29
2016-06-17T06:27:55.414Z,23.28
2016-06-17T06:28:55.434Z,23.18
2016-06-17T06:29:55.442Z,23.25
2016-06-17T06:30:55.498Z,23.28
2016-06-17T06:31:55.490Z,23.19
2016-06-17T06:32:55.515Z,23.34
2016-06-17T06:33:55.507Z,23.19
2016-06-17T06:34:55.528Z,23.25
2016-06-17T06:35:55.533Z,23.26
2016-06-17T06:36:55.413Z,23.25
2016-06-17T06:37:55.573Z,23.28
2016-06-17T06:38:55.579Z,23.22
2016-06-17T06:39:55.411Z,23.16
2016-06-17T06:40:55.463Z,23.25
2016-06-17T06:41:55.591Z,23.24
2016-06-17T06:42:55.627Z,23.25
2016-06-17T06:43:55.616Z,23.25
2016-06-17T06:44:55.494Z,23.15
2016-06-17T06:45:55.654Z,23.26
2016-06-17T06:46:55.672Z,23.26
2016-06-17T06:47:55.520Z,23.26
2016-06-17T06:48:55.554Z,23.26
2016-06-17T06:49:55.401Z,23.22
2016-06-17T06:50:55.718Z,23.19
2016-06-17T06:51:55.564Z,23.25
2016-06-17T06:52:55.756Z,23.26
2016-06-17T06:53:55.744Z,23.25
2016-06-17T06:54:55.763Z,23.24
2016-06-17T06:55:55.611Z,23.26
2016-06-17T06:56:55.800Z,23.22
2016-06-17T06:57:55.789Z,23.25
2016-06-17T06:58:55.824Z,23.18
2016-06-17T06:59:55.796Z,23.19
2016-06-17T07:00:55.815Z,23.26
2016-06-17T07:01:55.818Z,23.26
2016-06-17T07:02:55.696Z,23.28
2016-06-17T07:03:55.684Z,23.38
2016-06-17T07:04:55.719Z,23.32
2016-06-17T07:05:55.879Z,23.34
2016-06-17T07:06:55.899Z,23.4
2016-06-17T07:07:55.760Z,23.38
2016-06-17T07:08:55.920Z,23.35
2016-06-17T07:09:55.923Z,23.34
2016-06-17T07:10:55.927Z,23.35
2016-06-17T07:11:55.947Z,23.29
2016-06-17T07:12:55.966Z,23.38
2016-06-17T07:13:55.985Z,23.29
2016-06-17T07:14:55.973Z,23.32
2016-06-17T07:15:55.960Z,23.38
2016-06-17T07:16:55.995Z,23.37
2016-06-17T07:17:55.843Z,23.35
2016-06-17T07:18:56.032Z,23.35
2016-06-17T07:19:56.037Z,23.41
2016-06-17T07:20:56.055Z,23.35
2016-06-17T07:21:56.028Z,23.44
2016-06-17T07:22:56.047Z,23.38
2016-06-17T07:23:56.067Z,23.45
2016-06-17T07:24:56.086Z,23.41
2016-06-17T07:25:56.120Z,23.56
2016-06-17T07:26:56.107Z,23.52
2016-06-17T07:27:56.111Z,23.5
2016-06-17T07:28:56.131Z,23.45
2016-06-17T07:29:56.164Z,23.53
2016-06-17T07:30:56.013Z,23.48
2016-06-17T07:31:56.171Z,23.53
2016-06-17T07:32:56.191Z,23.4
2016-06-17T07:33:56.195Z,23.4
2016-06-17T07:34:56.230Z,23.34
2016-06-17T07:35:56.217Z,23.16
2016-06-17T07:36:56.236Z,23.14
2016-06-17T07:37:56.052Z,23.22
2016-06-17T07:38:56.243Z,23.34
2016-06-17T07:39:56.230Z,23.32
2016-06-17T07:40:56.250Z,23.28
2016-06-17T07:41:56.270Z,23.18
2016-06-17T07:42:56.287Z,23.4
2016-06-17T07:43:56.291Z,23.25
2016-06-17T07:44:56.295Z,23.25
2016-06-17T07:45:56.314Z,23.32
2016-06-17T07:46:56.318Z,23.22
2016-06-17T07:47:56.337Z,23.28
2016-06-17T07:48:56.309Z,23.26
2016-06-17T07:49:56.187Z,23.26
2016-06-17T07:50:56.378Z,23.28
2016-06-17T07:51:56.382Z,23.29
2016-06-17T07:52:56.370Z,23.12
2016-06-17T07:53:56.389Z,23.24
2016-06-17T07:54:56.407Z,23.15
2016-06-17T07:55:56.661Z,23.18
2016-06-17T07:56:56.414Z,23.18
2016-06-17T07:57:56.434Z,23.25
2016-06-17T07:58:56.484Z,23.26
2016-06-17T07:59:56.425Z,23.28
2016-06-17T08:04:54.568Z,23.16
2016-06-17T08:05:04.677Z,23.16
2016-06-17T08:06:04.666Z,23.16
2016-06-17T08:07:04.684Z,23.12
2016-06-17T08:08:04.687Z,23.04
2016-06-17T08:09:04.691Z,23.12
2016-06-17T08:10:04.710Z,23.03
2016-06-17T08:11:04.714Z,23.1
2016-06-17T08:12:04.812Z,23.1
2016-06-17T08:13:04.736Z,23.09
2016-06-17T08:14:04.755Z,23.06
2016-06-17T08:15:04.743Z,23.07
2016-06-17T08:16:04.778Z,23.07
2016-06-17T08:17:04.781Z,23.06
2016-06-17T08:18:04.785Z,23.14
2016-06-17T08:19:04.804Z,23.07
2016-06-17T08:20:04.807Z,23.21
2016-06-17T08:21:04.810Z,23.12
2016-06-17T08:22:05.799Z,23.18
2016-06-17T08:23:04.849Z,23.28
2016-06-17T08:24:04.853Z,23.24
2016-06-17T08:25:04.840Z,23.21
2016-06-17T08:26:04.875Z,23.18
2016-06-17T08:27:04.878Z,23.26
2016-06-17T08:28:04.882Z,23.15
2016-06-17T08:29:04.870Z,23.14
2016-06-17T08:30:05.514Z,23.18
2016-06-17T08:31:06.127Z,23.19
2016-06-17T08:32:04.912Z,23.35
2016-06-17T08:33:04.932Z,23.41
2016-06-17T08:34:04.966Z,23.41
2016-06-17T08:35:04.970Z,23.42
2016-06-17T08:36:04.956Z,23.41
2016-06-17T08:37:04.976Z,23.41
2016-06-17T08:38:05.011Z,23.55
2016-06-17T08:39:04.998Z,23.47
2016-06-17T08:40:05.596Z,23.48
2016-06-17T08:41:05.021Z,23.52
2016-06-17T08:42:05.055Z,23.5
2016-06-17T08:43:05.044Z,23.52
2016-06-17T08:44:05.062Z,23.56
2016-06-17T08:44:27.750Z,23.63
2016-06-17T08:45:27.504Z,23.64
2016-06-17T08:46:27.569Z,23.56
2016-06-17T08:47:27.512Z,23.72
2016-06-17T08:48:27.827Z,23.67
2016-06-17T08:49:27.550Z,23.71
2016-06-17T08:50:27.553Z,23.72
2016-06-17T08:51:27.541Z,23.77
2016-06-17T08:52:27.577Z,23.79
2016-06-17T08:53:28.034Z,23.78
2016-06-17T08:54:27.598Z,23.81
2016-06-17T08:55:27.868Z,23.79
2016-06-17T08:56:27.622Z,23.82
2016-06-17T08:57:27.609Z,23.9
2016-06-17T08:58:27.661Z,23.92
2016-06-17T08:59:27.648Z,23.87
2016-06-17T09:00:27.667Z,23.92
2016-06-17T09:01:27.764Z,23.94
2016-06-17T09:02:27.674Z,23.97
2016-06-17T09:03:28.319Z,24
2016-06-17T09:04:27.697Z,23.94
2016-06-17T09:05:27.920Z,23.87
2016-06-17T09:06:28.032Z,23.94
2016-06-17T09:07:28.363Z,23.93
2016-06-17T09:08:28.648Z,24.02
2016-06-17T09:16:27.782Z,24.02
2016-06-17T09:17:28.052Z,24.07
2016-06-17T09:24:25.550Z,23.96
2016-06-17T09:25:25.163Z,24.08
2016-06-17T09:26:25.167Z,24.07
2016-06-17T09:27:24.983Z,24.02
2016-06-17T09:28:25.002Z,23.87
2016-06-17T09:29:25.053Z,24.02
2016-06-17T09:30:25.009Z,24.07
2016-06-17T09:31:25.074Z,24
2016-06-17T09:32:25.032Z,24.07
2016-06-17T09:33:25.207Z,24.08
2016-06-17T09:34:25.664Z,24.03
2016-06-17T09:35:25.089Z,24.03
2016-06-17T09:36:25.171Z,24.02
2016-06-17T09:37:25.095Z,23.96
2016-06-17T09:38:25.099Z,23.99
2016-06-17T09:39:25.119Z,24.07
2016-06-17T09:40:25.122Z,24.03
2016-06-17T09:41:25.143Z,24.07
2016-06-17T09:42:25.162Z,24.11
2016-06-17T09:43:25.152Z,24.18
2016-06-17T09:44:25.329Z,24.18
2016-06-17T09:45:25.193Z,24.21
2016-06-17T09:46:25.806Z,24.18
2016-06-17T09:47:25.201Z,24.24
2016-06-17T09:48:25.266Z,24.21
2016-06-17T09:49:25.256Z,24.17
2016-06-17T09:50:25.868Z,24.19
2016-06-17T09:51:25.872Z,24.18
2016-06-17T09:52:25.281Z,24.19
2016-06-17T09:53:25.910Z,24.17
2016-06-17T09:54:25.288Z,24.17
2016-06-17T09:55:25.308Z,24.18
2016-06-17T09:56:25.311Z,24.15
2016-06-17T09:57:25.939Z,24.14
2016-06-17T09:58:25.337Z,24.19
2016-06-17T09:59:25.343Z,24.29
2016-06-17T10:00:25.363Z,24.24
2016-06-17T10:01:25.370Z,24.29
2016-06-17T10:02:25.391Z,24.27
2016-06-17T10:03:25.412Z,24.33
2016-06-17T10:04:25.417Z,24.3
2016-06-17T10:05:25.405Z,24.33
2016-06-17T10:06:25.471Z,24.34
2016-06-17T10:07:25.444Z,24.39
2016-06-17T10:08:25.447Z,24.45
2016-06-17T10:09:25.468Z,24.45
2016-06-17T10:10:25.503Z,24.42
2016-06-17T10:11:25.491Z,24.44
2016-06-17T10:12:25.494Z,24.52
2016-06-17T10:13:25.577Z,24.58
2016-06-17T10:14:25.533Z,24.58
2016-06-17T10:15:25.553Z,24.44
2016-06-17T10:16:26.167Z,24.59
2016-06-17T10:17:25.561Z,24.59
2016-06-17T10:18:25.581Z,24.63
2016-06-17T10:19:25.585Z,24.56
2016-06-17T10:20:25.605Z,24.52
2016-06-17T10:21:25.609Z,24.52
2016-06-17T10:22:25.628Z,24.59
2016-06-17T10:23:26.226Z,24.56
2016-06-17T10:24:25.652Z,24.63
2016-06-17T10:25:25.655Z,24.7
2016-06-17T10:26:25.689Z,24.75
2016-06-17T10:27:25.677Z,24.64
2016-06-17T10:28:26.306Z,24.7
2016-06-17T10:29:26.341Z,24.64
2016-06-17T10:30:26.328Z,24.75
2016-06-17T10:31:26.332Z,24.69
2016-06-17T10:32:26.351Z,24.74
2016-06-17T10:33:26.354Z,24.7
2016-06-17T10:34:25.780Z,24.67
2016-06-17T10:35:25.784Z,24.67
2016-06-17T10:36:26.396Z,24.61
2016-06-17T10:37:25.822Z,24.59
2016-06-17T10:38:25.809Z,24.66
2016-06-17T10:39:25.829Z,24.59
2016-06-17T10:40:25.816Z,24.67
2016-06-17T10:41:25.835Z,24.64
2016-06-17T10:42:25.839Z,24.64
2016-06-17T10:43:25.858Z,24.69
2016-06-17T10:44:25.877Z,24.71
2016-06-17T10:45:25.896Z,24.64
2016-06-17T10:46:25.915Z,24.7
2016-06-17T10:47:25.903Z,24.74
2016-06-17T10:48:25.953Z,24.77
2016-06-17T10:49:26.583Z,24.78
2016-06-17T10:50:25.962Z,24.75
2016-06-17T10:51:25.950Z,24.75
2016-06-17T10:52:25.954Z,24.87
2016-06-17T10:53:25.989Z,24.77
2016-06-17T10:54:26.010Z,24.82
2016-06-17T10:55:25.997Z,24.85
2016-06-17T10:56:26.641Z,24.85
2016-06-17T10:57:26.019Z,24.83
2016-06-17T10:58:26.053Z,24.9
2016-06-17T10:59:26.104Z,24.94
2016-06-17T11:00:26.077Z,24.92
2016-06-17T11:01:26.064Z,24.96
2016-06-17T11:02:26.084Z,24.92
2016-06-17T11:03:26.102Z,24.92
2016-06-17T11:04:26.699Z,24.89
2016-06-17T11:05:26.110Z,25
2016-06-17T11:06:26.128Z,24.93
2016-06-17T11:07:26.145Z,24.97
2016-06-17T11:08:26.194Z,24.94
2016-06-17T11:09:26.165Z,24.92
2016-06-17T11:10:26.793Z,24.94
2016-06-17T11:11:26.187Z,25.05
2016-06-17T11:12:26.205Z,25.09
2016-06-17T11:13:26.255Z,25.09
2016-06-17T11:14:26.211Z,25.09
2016-06-17T11:15:26.230Z,24.94
2016-06-17T11:16:26.858Z,24.9
2016-06-17T11:17:26.253Z,24.93
2016-06-17T11:18:26.256Z,24.92
2016-06-17T11:19:26.932Z,24.93
2016-06-17T11:20:26.311Z,25.01
2016-06-17T11:21:26.313Z,25.07
2016-06-17T11:22:26.301Z,25.04
2016-06-17T11:23:26.321Z,25.07
2016-06-17T11:24:26.667Z,25.04
2016-06-17T11:25:26.343Z,25
2016-06-17T11:26:26.346Z,25
2016-06-17T11:27:26.662Z,24.92
2016-06-17T11:28:26.978Z,25.05
2016-06-17T11:29:26.387Z,25.12
2016-06-17T11:30:26.423Z,25.11
2016-06-17T11:31:27.629Z,25.23
2016-06-17T11:32:27.038Z,25.15
2016-06-17T11:33:26.418Z,25.12
2016-06-17T11:34:26.437Z,25.17
2016-06-17T11:35:26.471Z,25.26
2016-06-17T11:36:26.475Z,25.29
2016-06-17T11:37:27.728Z,25.29
2016-06-17T11:38:26.498Z,25.27
2016-06-17T11:39:26.830Z,25.26
2016-06-17T11:40:27.113Z,25.34
2016-06-17T11:41:26.726Z,25.39
2016-06-17T11:42:26.525Z,25.33
2016-06-17T11:43:27.544Z,25.38
2016-06-17T11:44:26.657Z,25.27
2016-06-17T11:45:26.582Z,25.3
2016-06-17T11:46:26.569Z,25.3
2016-06-17T11:47:27.415Z,25.3
2016-06-17T11:48:26.607Z,25.3
2016-06-17T11:49:26.610Z,25.39
2016-06-17T11:50:27.597Z,25.29
2016-06-17T11:51:26.632Z,25.2
2016-06-17T11:52:26.838Z,25.22
2016-06-17T11:53:26.670Z,25.32
2016-06-17T11:54:26.658Z,25.32
2016-06-17T11:55:27.037Z,25.33
2016-06-17T11:56:26.837Z,25.34
2016-06-17T11:57:26.716Z,25.3
2016-06-17T11:58:26.703Z,25.3
2016-06-17T11:59:27.003Z,25.27
2016-06-17T12:00:27.351Z,25.27
2016-06-17T12:01:26.963Z,25.38
2016-06-17T12:02:26.764Z,25.38
2016-06-17T12:03:27.049Z,25.34
2016-06-17T12:04:27.459Z,25.33
2016-06-17T12:05:26.805Z,25.3
2016-06-17T12:06:27.106Z,25.33
2016-06-17T12:07:26.828Z,25.32
2016-06-17T12:08:26.848Z,25.37
2016-06-17T12:09:27.663Z,25.3
2016-06-17T12:10:26.870Z,25.34
2016-06-17T12:11:26.904Z,25.33
2016-06-17T12:12:27.001Z,25.24
2016-06-17T12:13:26.896Z,25.32
2016-06-17T12:14:26.900Z,25.44
2016-06-17T12:15:26.922Z,25.45
2016-06-17T12:16:27.116Z,25.48
2016-06-17T12:17:26.950Z,25.42
2016-06-17T12:18:27.754Z,25.32
2016-06-17T12:19:26.977Z,25.45
2016-06-17T12:20:27.233Z,25.45
2016-06-17T12:21:27.002Z,25.48
2016-06-17T12:22:27.007Z,25.51
2016-06-17T12:23:27.074Z,25.49
2016-06-17T12:24:27.687Z,25.48
2016-06-17T12:25:27.062Z,25.51
2016-06-17T12:26:27.066Z,25.51
2016-06-17T12:27:27.086Z,25.48
2016-06-17T12:28:27.090Z,25.45
2016-06-17T12:29:27.109Z,25.47
2016-06-17T12:30:27.301Z,25.56
2016-06-17T12:31:27.132Z,25.49
2016-06-17T12:32:27.745Z,25.52
2016-06-17T12:33:27.451Z,25.56
2016-06-17T12:34:27.767Z,25.62
2016-06-17T12:35:28.084Z,25.56
2016-06-17T12:36:27.274Z,25.57
2016-06-17T12:37:27.200Z,25.48
2016-06-17T12:38:27.375Z,25.49
2016-06-17T12:39:27.206Z,25.52
2016-06-17T12:40:27.226Z,25.47
2016-06-17T12:41:27.245Z,25.56
2016-06-17T12:42:27.264Z,25.52
2016-06-17T12:43:27.501Z,25.54
2016-06-17T12:44:27.271Z,25.48
2016-06-17T12:45:27.289Z,25.66
2016-06-17T12:46:27.293Z,25.79
2016-06-17T12:47:27.312Z,25.7
2016-06-17T12:48:27.331Z,25.76
2016-06-17T12:49:27.944Z,25.66
2016-06-17T12:50:27.339Z,25.69
2016-06-17T12:51:27.701Z,25.67
2016-06-17T12:52:27.377Z,25.76
2016-06-17T12:53:27.489Z,25.79
2016-06-17T12:54:27.384Z,25.75
2016-06-17T12:55:28.137Z,25.75
2016-06-17T12:56:27.406Z,25.7
2016-06-17T12:57:27.660Z,25.62
2016-06-17T12:58:28.069Z,25.49
2016-06-17T12:59:27.588Z,25.64
2016-06-17T13:00:27.638Z,25.7
2016-06-17T13:01:28.079Z,25.71
2016-06-17T13:02:27.583Z,25.63
2016-06-17T13:03:27.493Z,25.7
2016-06-17T13:04:28.105Z,25.63
2016-06-17T13:05:28.219Z,25.66
2016-06-17T13:06:28.144Z,25.62
2016-06-17T13:07:27.553Z,25.76
2016-06-17T13:08:27.556Z,25.79
2016-06-17T13:09:27.560Z,25.67
2016-06-17T13:10:27.736Z,25.74
2016-06-17T13:11:27.598Z,25.78